createdAt,value
2023-03-02T00:02:01.817Z,7.90
2023-03-02T00:07:08.685Z,7.90
2023-03-02T00:12:11.389Z,7.90
2023-03-02T00:17:13.346Z,7.90
2023-03-02T00:22:17.825Z,7.80
2023-03-02T00:27:19.721Z,7.70
2023-03-02T00:32:21.690Z,7.70
2023-03-02T00:37:25.760Z,7.60
2023-03-02T00:42:27.616Z,7.50
2023-03-02T00:47:30.005Z,7.50
2023-03-02T00:52:33.449Z,7.50
2023-03-02T00:57:35.883Z,7.60
2023-03-02T01:02:44.414Z,7.60
2023-03-02T01:07:50.211Z,7.50
2023-03-02T01:12:52.266Z,7.50
2023-03-02T01:17:54.165Z,7.50
2023-03-02T01:22:56.432Z,7.40
2023-03-02T01:27:58.381Z,7.30
2023-03-02T01:33:00.307Z,7.30
2023-03-02T01:38:02.235Z,7.30
2023-03-02T01:43:14.763Z,7.30
2023-03-02T01:48:21.805Z,7.30
2023-03-02T01:53:27.312Z,7.30
2023-03-02T01:58:34.399Z,7.30
2023-03-02T02:03:36.426Z,7.30
2023-03-02T02:08:39.052Z,7.30
2023-03-02T02:13:42.203Z,7.30
2023-03-02T02:18:44.791Z,7.30
2023-03-02T02:23:59.180Z,7.30
2023-03-02T02:29:08.013Z,7.30
2023-03-02T02:34:22.670Z,7.30
2023-03-02T02:39:34.343Z,7.30
2023-03-02T02:44:36.401Z,7.40
2023-03-02T02:49:40.502Z,7.40
2023-03-02T02:54:45.212Z,7.40
2023-03-02T02:59:54.950Z,7.40
2023-03-02T03:05:03.204Z,7.40
2023-03-02T03:10:35.006Z,7.40
2023-03-02T03:15:36.967Z,7.40
2023-03-02T03:20:41.183Z,7.30
2023-03-02T03:25:43.179Z,7.40
2023-03-02T03:30:45.658Z,7.40
2023-03-02T03:35:47.720Z,7.40
2023-03-02T03:40:49.893Z,7.40
2023-03-02T03:45:52.110Z,7.50
2023-03-02T03:50:54.798Z,7.50
2023-03-02T03:55:57.246Z,7.50
2023-03-02T04:00:59.934Z,7.40
2023-03-02T04:06:02.188Z,7.30
2023-03-02T04:11:04.596Z,7.30
2023-03-02T04:16:07.165Z,7.30
2023-03-02T04:21:09.397Z,7.30
2023-03-02T04:26:11.513Z,7.30
2023-03-02T04:31:13.495Z,7.30
2023-03-02T04:36:16.599Z,7.30
2023-03-02T04:41:19.567Z,7.30
2023-03-02T04:46:25.056Z,7.30
2023-03-02T04:51:31.207Z,7.20
2023-03-02T04:56:34.252Z,7.30
2023-03-02T05:01:36.420Z,7.30
2023-03-02T05:06:38.648Z,7.30
2023-03-02T05:11:40.936Z,7.20
2023-03-02T05:16:43.001Z,7.20
2023-03-02T05:21:45.521Z,7.20
2023-03-02T05:26:47.450Z,7.20
2023-03-02T05:31:50.111Z,7.20
2023-03-02T05:36:52.035Z,7.10
2023-03-02T05:41:54.044Z,7.10
2023-03-02T05:46:59.120Z,7.10
2023-03-02T05:52:02.454Z,7.20
2023-03-02T05:57:04.298Z,7.10
2023-03-02T06:02:06.139Z,7.20
2023-03-02T06:07:08.022Z,7.10
2023-03-02T06:12:09.947Z,7.10
2023-03-02T06:17:11.722Z,7.00
2023-03-02T06:22:13.526Z,7.00
2023-03-02T06:27:15.864Z,7.10
2023-03-02T06:32:17.809Z,7.20
2023-03-02T06:37:19.788Z,7.20
2023-03-02T06:42:21.999Z,7.20
2023-03-02T06:47:25.286Z,7.20
2023-03-02T06:52:30.305Z,7.20
2023-03-02T06:57:34.272Z,7.20
2023-03-02T07:02:36.977Z,7.30
2023-03-02T07:07:39.292Z,7.30
2023-03-02T07:12:42.450Z,7.30
2023-03-02T07:17:45.274Z,7.30
2023-03-02T07:22:47.156Z,7.40
2023-03-02T07:27:49.493Z,7.40
2023-03-02T07:32:51.555Z,7.40
2023-03-02T07:37:53.458Z,7.50
2023-03-02T07:42:55.547Z,7.60
2023-03-02T07:47:57.371Z,7.60
2023-03-02T07:53:00.095Z,7.70
2023-03-02T07:58:01.971Z,7.70
2023-03-02T08:03:03.901Z,7.80
2023-03-02T08:08:05.899Z,7.80
2023-03-02T08:13:07.763Z,7.90
2023-03-02T08:18:09.632Z,7.90
2023-03-02T08:23:11.463Z,7.90
2023-03-02T08:28:13.410Z,7.90
2023-03-02T08:33:15.280Z,7.90
2023-03-02T08:38:17.113Z,7.90
2023-03-02T08:43:20.024Z,7.90
2023-03-02T08:48:22.679Z,7.90
2023-03-02T08:53:24.815Z,7.90
2023-03-02T08:58:26.699Z,7.90
2023-03-02T09:03:28.579Z,7.90
2023-03-02T09:08:30.407Z,7.90
2023-03-02T09:13:32.771Z,7.90
2023-03-02T09:18:35.243Z,7.90
2023-03-02T09:23:37.297Z,7.90
2023-03-02T09:28:39.827Z,7.90
2023-03-02T09:33:41.916Z,7.90
2023-03-02T09:38:43.766Z,7.90
2023-03-02T09:44:23.707Z,7.90
2023-03-02T09:49:53.995Z,7.90
2023-03-02T09:54:57.294Z,7.90
2023-03-02T10:00:18.726Z,7.80
2023-03-02T10:05:31.456Z,7.60
2023-03-02T10:10:39.152Z,7.70
2023-03-02T10:15:59.032Z,7.80
2023-03-02T10:21:05.799Z,7.90
2023-03-02T10:26:16.586Z,7.90
2023-03-02T10:31:33.144Z,8.00
2023-03-02T10:36:39.915Z,8.00
2023-03-02T10:41:49.612Z,8.00
2023-03-02T10:46:53.783Z,8.10
2023-03-02T10:52:04.653Z,8.10
2023-03-02T10:57:32.698Z,8.10
2023-03-02T11:02:37.375Z,8.10
2023-03-02T11:07:39.269Z,8.20
2023-03-02T11:12:46.573Z,8.20
2023-03-02T11:18:07.151Z,8.20
2023-03-02T11:23:16.677Z,8.40
2023-03-02T11:28:33.261Z,8.40
2023-03-02T11:33:42.687Z,8.30
2023-03-02T11:38:52.630Z,8.30
2023-03-02T11:43:55.748Z,8.30
2023-03-02T11:49:07.204Z,8.30
2023-03-02T11:54:24.018Z,8.30
2023-03-02T11:59:28.541Z,8.40
2023-03-02T12:04:36.986Z,8.40
2023-03-02T12:09:39.495Z,8.30
2023-03-02T12:14:43.277Z,8.40
2023-03-02T12:19:46.126Z,8.40
2023-03-02T12:24:59.006Z,8.40
2023-03-02T12:30:16.262Z,8.40
2023-03-02T12:35:20.836Z,8.40
2023-03-02T12:40:51.700Z,8.30
2023-03-02T12:46:30.509Z,8.30
2023-03-02T12:51:52.751Z,8.30
2023-03-02T12:57:18.297Z,8.50
2023-03-02T13:02:23.288Z,8.50
2023-03-02T13:07:30.032Z,8.50
2023-03-02T13:12:32.329Z,8.40
2023-03-02T13:17:34.228Z,8.50
2023-03-02T13:22:36.213Z,8.60
2023-03-02T13:27:38.091Z,8.60
2023-03-02T13:32:44.970Z,8.60
2023-03-02T13:37:46.991Z,8.60
2023-03-02T13:42:49.203Z,8.50
2023-03-02T13:47:51.443Z,8.60
2023-03-02T13:52:56.515Z,8.60
2023-03-02T13:57:58.731Z,8.60
2023-03-02T14:03:01.328Z,8.60
2023-03-02T14:08:03.221Z,8.60
2023-03-02T14:13:10.188Z,8.50
2023-03-02T14:18:29.653Z,8.50
2023-03-02T14:23:31.848Z,8.60
2023-03-02T14:28:37.481Z,8.40
2023-03-02T14:33:39.295Z,8.30
2023-03-02T14:38:41.171Z,8.30
2023-03-02T14:43:42.972Z,8.20
2023-03-02T14:48:44.755Z,8.20
2023-03-02T14:53:46.949Z,8.10
2023-03-02T14:58:52.867Z,8.10
2023-03-02T15:03:54.693Z,8.10
2023-03-02T15:08:58.220Z,8.10
2023-03-02T15:14:00.112Z,8.20
2023-03-02T15:19:01.909Z,8.20
2023-03-02T15:24:04.065Z,8.20
2023-03-02T15:29:07.059Z,8.20
2023-03-02T15:34:08.935Z,8.00
2023-03-02T15:39:14.077Z,7.90
2023-03-02T15:44:22.399Z,7.90
2023-03-02T15:49:27.343Z,8.00
2023-03-02T15:54:29.679Z,8.00
2023-03-02T15:59:33.148Z,8.00
2023-03-02T16:04:37.946Z,8.20
2023-03-02T16:09:39.871Z,8.20
2023-03-02T16:14:43.632Z,8.20
2023-03-02T16:19:46.156Z,8.20
2023-03-02T16:24:49.492Z,8.20
2023-03-02T16:29:56.027Z,8.30
2023-03-02T16:35:06.207Z,8.30
2023-03-02T16:40:15.428Z,8.30
2023-03-02T16:45:19.134Z,8.20
2023-03-02T16:50:21.119Z,8.20
2023-03-02T16:55:23.068Z,8.30
2023-03-02T17:00:34.970Z,8.20
2023-03-02T17:05:43.569Z,8.10
2023-03-02T17:10:56.329Z,8.10
2023-03-02T17:16:03.328Z,8.10
2023-03-02T17:21:10.617Z,8.00
2023-03-02T17:26:21.500Z,8.00
2023-03-02T17:31:23.372Z,8.10
2023-03-02T17:36:25.283Z,8.10
2023-03-02T17:41:27.172Z,8.10
2023-03-02T17:46:30.237Z,8.00
2023-03-02T17:51:32.215Z,8.00
2023-03-02T17:56:34.344Z,8.10
2023-03-02T18:01:36.205Z,8.10
2023-03-02T18:06:38.203Z,8.10
2023-03-02T18:11:42.313Z,8.20
2023-03-02T18:16:44.680Z,8.30
2023-03-02T18:21:46.482Z,8.30
2023-03-02T18:26:48.320Z,8.40
2023-03-02T18:31:52.537Z,8.40
2023-03-02T18:36:54.445Z,8.40
2023-03-02T18:41:56.509Z,8.50
2023-03-02T18:46:58.856Z,8.50
2023-03-02T18:52:05.707Z,8.50
2023-03-02T18:57:08.921Z,8.50
2023-03-02T19:02:13.799Z,8.50
2023-03-02T19:12:50.325Z,8.50
2023-03-02T19:17:53.079Z,8.50
2023-03-02T19:22:55.785Z,8.50
2023-03-02T19:27:57.734Z,8.60
2023-03-02T19:33:01.787Z,8.60
2023-03-02T19:38:04.445Z,8.50
2023-03-02T19:43:06.455Z,8.30
2023-03-02T19:48:09.099Z,8.00
2023-03-02T19:53:11.459Z,7.70
2023-03-02T19:58:17.446Z,7.70
2023-03-02T20:03:19.596Z,7.90
2023-03-02T20:08:22.666Z,7.90
2023-03-02T20:13:27.099Z,8.00
2023-03-02T20:18:29.741Z,8.10
2023-03-02T20:23:31.829Z,8.20
2023-03-02T20:28:34.464Z,8.20
2023-03-02T20:33:42.653Z,8.20
2023-03-02T20:38:52.936Z,8.30
2023-03-02T20:43:55.168Z,8.30
2023-03-02T20:48:57.334Z,8.30
2023-03-02T20:53:59.433Z,8.40
2023-03-02T20:59:01.531Z,8.40
2023-03-02T21:04:03.662Z,8.30
2023-03-02T21:09:08.080Z,8.40
2023-03-02T21:14:14.034Z,8.40
2023-03-02T21:19:18.117Z,8.40
2023-03-02T21:24:23.730Z,8.30
2023-03-02T21:29:26.778Z,8.30
2023-03-02T21:34:29.106Z,8.30
2023-03-02T21:39:31.231Z,8.30
2023-03-02T21:44:33.173Z,8.20
2023-03-02T21:49:35.176Z,8.20
2023-03-02T21:54:37.086Z,8.20
2023-03-02T21:59:39.101Z,8.10
2023-03-02T22:04:41.646Z,8.00
2023-03-02T22:09:43.631Z,8.00
2023-03-02T22:14:45.722Z,8.10
2023-03-02T22:19:48.851Z,8.10
2023-03-02T22:24:52.228Z,8.00
2023-03-02T22:29:57.829Z,8.00
2023-03-02T22:35:02.950Z,8.00
2023-03-02T22:40:30.024Z,8.00
2023-03-02T22:45:32.077Z,8.10
2023-03-02T22:50:34.051Z,8.10
2023-03-02T22:55:42.278Z,8.10
2023-03-02T23:00:44.358Z,8.10
2023-03-02T23:05:51.031Z,8.00
2023-03-02T23:10:57.621Z,8.00
2023-03-02T23:16:01.251Z,7.90
2023-03-02T23:21:03.303Z,7.90
2023-03-02T23:26:05.340Z,7.90
2023-03-02T23:31:07.382Z,7.90
2023-03-02T23:36:10.264Z,7.80
2023-03-02T23:41:12.180Z,7.90
2023-03-02T23:46:14.524Z,7.90
2023-03-02T23:51:16.666Z,7.90
2023-03-02T23:56:19.243Z,7.90
